Time,TemperatureF,DewpointF,PressureIn,WindDirection,WindDirectionDegrees,WindSpeedMPH,WindSpeedGustMPH,Humidity,HourlyPrecipIn,Conditions,Clouds,dailyrainin,SoftwareType,DateUTC
2013-10-21 00:14:00,46.0,33.0,30.02,WSW,248,0.0,0.0,61,0.00,,,0.00,,2013-10-21 04:14:00,
2013-10-21 00:24:00,46.0,33.0,30.02,West,270,0.0,0.0,61,0.00,,,0.00,,2013-10-21 04:24:00,
2013-10-21 01:52:00,44.0,33.0,30.03,WSW,248,0.0,0.0,64,0.00,,,0.00,,2013-10-21 05:52:00,
2013-10-21 06:23:00,42.0,33.0,30.07,WSW,248,0.0,0.0,71,0.00,,,0.00,,2013-10-21 10:23:00,
2013-10-21 10:52:00,55.0,41.0,30.10,West,270,0.0,0.0,60,0.00,,,0.00,,2013-10-21 14:52:00,
2013-10-21 11:21:00,58.0,43.0,30.10,West,270,0.0,0.0,57,0.00,,,0.00,,2013-10-21 15:21:00,
2013-10-21 11:53:00,61.0,44.0,30.09,WNW,293,0.0,0.0,54,0.00,,,0.00,,2013-10-21 15:53:00,
2013-10-21 13:43:00,69.0,43.0,30.05,WSW,248,0.0,0.0,39,0.00,,,0.00,,2013-10-21 17:43:00,
2013-10-21 13:53:00,67.0,41.0,30.04,WSW,248,0.0,8.0,39,0.00,,,0.00,,2013-10-21 17:53:00,
2013-10-21 14:12:00,68.0,43.0,30.04,WSW,248,0.0,0.0,40,0.00,,,0.00,,2013-10-21 18:12:00,
2013-10-21 14:22:00,67.0,42.0,30.03,WSW,248,0.0,3.0,40,0.00,,,0.00,,2013-10-21 18:22:00,
2013-10-21 14:42:00,66.0,42.0,30.03,WSW,248,0.0,0.0,41,0.00,,,0.00,,2013-10-21 18:42:00,
2013-10-21 14:52:00,65.0,41.0,30.02,WNW,293,0.0,0.0,41,0.00,,,0.00,,2013-10-21 18:52:00,
2013-10-21 15:22:00,66.0,42.0,30.02,West,270,0.0,3.0,42,0.00,,,0.00,,2013-10-21 19:22:00,
2013-10-21 15:52:00,66.0,42.0,30.02,SSE,158,0.0,0.0,42,0.00,,,0.00,,2013-10-21 19:52:00,
2013-10-21 16:22:00,66.0,43.0,30.02,SE,135,0.0,0.0,43,0.00,,,0.00,,2013-10-21 20:22:00,
2013-10-21 16:53:00,64.0,41.0,30.01,SE,135,0.0,7.0,43,0.00,,,0.00,,2013-10-21 20:53:00,
2013-10-21 17:22:00,64.0,41.0,30.01,WSW,248,0.0,3.0,43,0.00,,,0.00,,2013-10-21 21:22:00,
2013-10-21 17:54:00,61.0,39.0,30.02,SE,135,5.0,5.0,44,0.00,,,0.00,,2013-10-21 21:54:00,
2013-10-21 18:24:00,58.0,38.0,30.03,ESE,113,0.0,0.0,47,0.00,,,0.00,,2013-10-21 22:24:00,
2013-10-21 18:44:00,58.0,38.0,30.03,SSE,158,0.0,0.0,48,0.00,,,0.00,,2013-10-21 22:44:00,
2013-10-21 18:54:00,56.0,39.0,30.03,SE,135,0.0,0.0,52,0.00,,,0.00,,2013-10-21 22:54:00,
2013-10-21 19:22:00,54.0,39.0,30.03,SSE,158,0.0,0.0,56,0.00,,,0.00,,2013-10-21 23:22:00,
2013-10-21 19:53:00,53.0,39.0,30.03,SE,135,0.0,2.0,60,0.00,,,0.00,,2013-10-21 23:53:00,
2013-10-21 20:12:00,53.0,40.0,30.03,SSE,158,0.0,2.0,61,0.00,,,0.00,,2013-10-22 00:12:00,
2013-10-21 20:22:00,53.0,41.0,30.03,SSE,158,6.0,6.0,64,0.00,,,0.00,,2013-10-22 00:22:00,
2013-10-21 20:53:00,52.0,41.0,30.03,SSE,158,0.0,5.0,66,0.00,,,0.00,,2013-10-22 00:53:00,
2013-10-21 21:22:00,52.0,42.0,30.03,SSE,158,0.0,4.0,68,0.00,,,0.00,,2013-10-22 01:22:00,
2013-10-21 21:53:00,52.0,43.0,30.03,SW,225,0.0,0.0,70,0.00,,,0.00,,2013-10-22 01:53:00,
2013-10-21 22:22:00,52.0,43.0,30.02,SSW,203,0.0,0.0,70,0.00,,,0.00,,2013-10-22 02:22:00,
2013-10-21 22:52:00,52.0,43.0,30.01,South,180,0.0,0.0,71,0.00,,,0.00,,2013-10-22 02:52:00,
2013-10-21 23:23:00,52.0,43.0,30.00,SSE,158,0.0,0.0,70,0.00,,,0.00,,2013-10-22 03:23:00,
2013-10-21 23:55:00,52.0,43.0,29.99,SSE,158,0.0,0.0,71,0.00,,,0.00,,2013-10-22 03:55:00,